Saint Louis, Missouri
Traffic Map
Current Weather Conditions
Saint Louis, Missouri
Overcast
Overcast

Feels Like: -1°
Wind Chill: -1° Ceiling: 4800
Heat Index: Visibility: 10mi
Dew Point: -7° Wind: 9mph
Humidity: 50% Direction: 150° (SSE)
Pressure: 30.1in Gusts: 0mph
Raw Report DataKCPS 110853Z AUTO 15008KT 10SM OVC048 03/M07 A3010 RMK AO2 SLP197 T00281067 58034 $
Traffic Incident Summary
Active as of:
Severity:
Category:
InformationThere was an issue retrieving the traffic information for this location. Please try a different location or try again shortly.
Advertisements
Track Severe Weather on mobile